Time;durP1;ratioP1;P1;durP2;ratioP2;P2;SDS_P1;SDS_P2;PMS_P1;PMS_P2;Temp;Humidity;BMP_temperature;BMP_pressure;BME280_temperature;BME280_humidity;BME280_pressure;Samples;Min_cycle;Max_cycle;Signal;HPM_P1;HPM_P2
2021/07/05 00:01:28;;;;;;;5.82;5.13;;;14.00;99.90;;;;;;5048544;28;20056;-62
2021/07/05 00:03:54;;;;;;;5.72;4.35;;;13.90;99.90;;;;;;5045166;28;20513;-62
2021/07/05 00:06:19;;;;;;;5.90;4.55;;;13.90;99.90;;;;;;5026304;28;20085;-61
2021/07/05 00:08:45;;;;;;;12.20;4.82;;;13.80;99.90;;;;;;5021077;28;21066;-62
2021/07/05 00:11:10;;;;;;;11.05;5.47;;;13.80;99.90;;;;;;5046566;28;20086;-61
2021/07/05 00:13:36;;;;;;;7.80;4.90;;;13.80;99.90;;;;;;5054904;28;20025;-62
2021/07/05 00:16:03;;;;;;;9.60;5.68;;;13.70;99.90;;;;;;5049759;28;20407;-62
2021/07/05 00:18:28;;;;;;;8.35;5.03;;;13.70;99.90;;;;;;5047007;28;20052;-63
2021/07/05 00:20:54;;;;;;;9.15;5.28;;;13.70;99.90;;;;;;5044227;28;20025;-63
2021/07/05 00:23:20;;;;;;;6.00;5.22;;;13.70;99.90;;;;;;5049227;28;20025;-62
2021/07/05 00:25:46;;;;;;;7.05;5.57;;;13.70;99.90;;;;;;5032563;28;20024;-63
2021/07/05 00:28:11;;;;;;;9.90;5.30;;;13.60;99.90;;;;;;5049662;28;20082;-63
2021/07/05 00:30:38;;;;;;;9.88;6.15;;;13.60;99.90;;;;;;5049114;28;20040;-62
2021/07/05 00:33:04;;;;;;;9.15;5.72;;;13.60;99.90;;;;;;5047001;28;20029;-61
2021/07/05 00:35:30;;;;;;;6.88;4.80;;;13.60;99.90;;;;;;5048949;28;20041;-61
2021/07/05 00:37:56;;;;;;;5.43;4.72;;;13.60;99.90;;;;;;5048992;28;20462;-62
2021/07/05 00:40:23;;;;;;;8.57;4.93;;;13.60;99.90;;;;;;5048194;28;20029;-62
2021/07/05 00:42:49;;;;;;;5.80;4.55;;;13.60;99.90;;;;;;5048688;28;20033;-61
2021/07/05 00:45:16;;;;;;;9.27;5.15;;;13.60;99.90;;;;;;5045335;28;20490;-62
2021/07/05 00:47:42;;;;;;;16.73;5.82;;;13.60;99.90;;;;;;5044461;28;20041;-61
2021/07/05 00:50:09;;;;;;;7.78;5.93;;;13.60;99.90;;;;;;5044753;28;20047;-62
2021/07/05 00:52:37;;;;;;;8.60;5.55;;;13.70;99.90;;;;;;5043669;28;20027;-62
2021/07/05 00:55:05;;;;;;;12.02;6.28;;;13.70;99.90;;;;;;5049117;28;20563;-62
2021/07/05 00:57:31;;;;;;;8.95;5.18;;;13.70;99.90;;;;;;5047670;28;20044;-61
2021/07/05 00:59:57;;;;;;;6.65;5.15;;;13.70;99.90;;;;;;5047050;28;20029;-62
2021/07/05 01:02:25;;;;;;;7.20;5.45;;;13.70;99.90;;;;;;5050478;28;20073;-62
2021/07/05 01:04:51;;;;;;;7.60;5.43;;;13.70;99.90;;;;;;5049436;28;20029;-63
2021/07/05 01:07:20;;;;;;;11.82;5.55;;;13.70;99.90;;;;;;5034499;28;20045;-61
2021/07/05 01:09:46;;;;;;;6.72;5.50;;;13.70;99.90;;;;;;5052979;28;20073;-62
2021/07/05 01:12:11;;;;;;;5.75;4.97;;;13.70;99.90;;;;;;5052123;28;20033;-62
2021/07/05 01:14:38;;;;;;;7.82;6.05;;;13.70;99.90;;;;;;5048806;28;20179;-63
2021/07/05 01:17:10;;;;;;;9.15;5.53;;;13.70;99.90;;;;;;5046012;28;20029;-61
2021/07/05 01:19:37;;;;;;;6.88;5.15;;;13.80;99.90;;;;;;5047509;28;20025;-60
2021/07/05 01:22:03;;;;;;;5.40;4.22;;;13.90;99.90;;;;;;5050195;28;20432;-60
2021/07/05 01:24:29;;;;;;;7.78;5.43;;;14.00;99.90;;;;;;5054412;28;20115;-61
2021/07/05 01:26:55;;;;;;;8.98;6.07;;;14.00;99.90;;;;;;5040091;28;20028;-60
2021/07/05 01:29:20;;;;;;;6.57;4.85;;;14.00;99.90;;;;;;5056485;28;20028;-61
2021/07/05 01:31:46;;;;;;;5.05;4.22;;;14.10;99.90;;;;;;5058382;28;20041;-61
2021/07/05 01:34:11;;;;;;;8.95;4.70;;;14.20;99.90;;;;;;5063395;28;20028;-62
2021/07/05 01:36:37;;;;;;;7.97;4.88;;;14.20;99.90;;;;;;5040857;28;20833;-62
2021/07/05 01:39:06;;;;;;;12.00;4.90;;;14.30;99.90;;;;;;5049168;28;20041;-62
2021/07/05 01:41:31;;;;;;;11.35;4.32;;;14.30;99.90;;;;;;5049984;28;20071;-62
2021/07/05 01:43:57;;;;;;;4.63;3.78;;;14.40;99.90;;;;;;5052317;28;20433;-62
2021/07/05 01:46:22;;;;;;;9.63;4.57;;;14.30;99.90;;;;;;5024647;28;20029;-63
2021/07/05 01:48:48;;;;;;;7.20;4.70;;;14.40;99.90;;;;;;5050806;28;20032;-61
2021/07/05 01:51:14;;;;;;;7.13;3.78;;;14.40;99.90;;;;;;5046646;28;20432;-61
2021/07/05 01:53:40;;;;;;;6.35;3.03;;;14.50;99.90;;;;;;5046439;28;20096;-62
2021/07/05 01:56:06;;;;;;;5.90;4.68;;;14.50;99.90;;;;;;5047254;28;20029;-63
2021/07/05 01:58:32;;;;;;;11.63;3.97;;;14.50;99.90;;;;;;5033204;28;20033;-59
2021/07/05 02:00:58;;;;;;;4.50;3.72;;;14.60;99.90;;;;;;5046066;28;20021;-63
2021/07/05 02:03:23;;;;;;;5.32;3.85;;;14.60;99.90;;;;;;5045830;28;20090;-63
2021/07/05 02:05:49;;;;;;;8.15;3.70;;;14.60;99.90;;;;;;5012861;28;20502;-61
2021/07/05 02:08:16;;;;;;;6.80;3.75;;;14.60;99.90;;;;;;5030810;28;20080;-62
2021/07/05 02:10:43;;;;;;;5.65;3.40;;;14.60;99.90;;;;;;5047714;28;20436;-62
2021/07/05 02:13:26;;;;;;;18.70;5.43;;;14.60;99.90;;;;;;5048519;28;20029;-61
2021/07/05 02:15:55;;;;;;;5.22;4.03;;;14.60;99.90;;;;;;5040397;28;20029;-63
2021/07/05 02:18:21;;;;;;;5.00;3.53;;;14.60;99.90;;;;;;5042662;28;20025;-62
2021/07/05 02:20:47;;;;;;;7.63;4.10;;;14.60;99.90;;;;;;5041748;28;20234;-62
2021/07/05 02:23:15;;;;;;;12.15;3.72;;;14.60;99.90;;;;;;5047708;28;20021;-60
2021/07/05 02:25:41;;;;;;;8.73;4.03;;;14.60;99.90;;;;;;5030634;28;20044;-60
2021/07/05 02:28:10;;;;;;;7.13;3.53;;;14.70;99.90;;;;;;5039624;28;20072;-62
2021/07/05 02:30:37;;;;;;;7.97;3.67;;;14.70;99.90;;;;;;5043607;28;20049;-62
2021/07/05 02:33:04;;;;;;;4.68;3.20;;;14.70;99.90;;;;;;5046961;28;20033;-61
2021/07/05 02:35:31;;;;;;;7.88;3.70;;;14.70;99.90;;;;;;5046286;28;20036;-62
2021/07/05 02:37:59;;;;;;;6.05;3.78;;;14.80;99.90;;;;;;5048563;28;20028;-62
2021/07/05 02:40:28;;;;;;;8.68;3.97;;;14.80;99.90;;;;;;5048435;28;20597;-62
2021/07/05 02:42:54;;;;;;;6.15;3.30;;;14.80;99.90;;;;;;5046561;28;20033;-63
2021/07/05 02:45:23;;;;;;;8.38;3.63;;;14.80;99.90;;;;;;5047401;28;20428;-62
2021/07/05 02:47:52;;;;;;;7.72;3.47;;;14.80;99.90;;;;;;5047634;28;20108;-63
2021/07/05 02:50:19;;;;;;;9.98;4.45;;;14.80;99.90;;;;;;5030411;28;20098;-63
2021/07/05 02:52:45;;;;;;;4.43;3.13;;;14.80;99.90;;;;;;5047459;28;20118;-62
2021/07/05 02:55:12;;;;;;;6.47;3.33;;;14.90;99.90;;;;;;5046448;28;20158;-62
2021/07/05 02:57:38;;;;;;;5.28;3.40;;;14.90;99.90;;;;;;5045413;28;20436;-62
2021/07/05 03:00:12;;;;;;;8.63;3.42;;;14.90;99.90;;;;;;5046481;28;20021;-61
2021/07/05 03:02:38;;;;;;;6.80;3.30;;;14.90;99.90;;;;;;5046533;28;20075;-61
2021/07/05 03:05:07;;;;;;;5.32;3.60;;;14.90;99.90;;;;;;5044862;28;20029;-63
2021/07/05 03:07:33;;;;;;;8.65;3.00;;;14.90;99.90;;;;;;5030386;28;20094;-63
2021/07/05 03:09:58;;;;;;;4.68;3.33;;;14.90;99.90;;;;;;5050034;28;20409;-61
2021/07/05 03:12:24;;;;;;;11.88;3.92;;;14.90;99.90;;;;;;5054393;28;20084;-61
2021/07/05 03:14:49;;;;;;;6.32;3.17;;;14.90;99.90;;;;;;5048248;28;20033;-61
2021/07/05 03:17:15;;;;;;;11.82;3.13;;;14.90;99.90;;;;;;5043753;28;20033;-62
2021/07/05 03:19:41;;;;;;;3.10;2.33;;;14.90;99.90;;;;;;5050170;28;20513;-61
2021/07/05 03:22:07;;;;;;;5.57;3.08;;;15.00;99.90;;;;;;5054040;28;20043;-62
2021/07/05 03:24:33;;;;;;;5.28;2.55;;;15.00;99.90;;;;;;5050209;28;20047;-62
2021/07/05 03:26:58;;;;;;;6.20;3.00;;;15.00;99.90;;;;;;5033213;28;20033;-61
2021/07/05 03:29:24;;;;;;;5.40;3.20;;;15.00;99.90;;;;;;5049949;28;20037;-62
2021/07/05 03:31:50;;;;;;;6.32;2.78;;;15.10;99.90;;;;;;5049350;28;20029;-61
2021/07/05 03:34:16;;;;;;;9.52;2.88;;;15.00;99.90;;;;;;5049666;28;20071;-63
2021/07/05 03:36:41;;;;;;;4.68;3.03;;;15.10;99.90;;;;;;5050683;28;20143;-61
2021/07/05 03:39:07;;;;;;;4.32;2.42;;;15.10;99.90;;;;;;5050623;28;20028;-61
2021/07/05 03:41:32;;;;;;;8.45;2.83;;;15.10;99.90;;;;;;5051473;28;20165;-62
2021/07/05 03:43:58;;;;;;;7.13;2.95;;;15.10;99.90;;;;;;5050830;28;20090;-61
2021/07/05 03:46:23;;;;;;;3.75;2.65;;;15.10;99.90;;;;;;5051419;28;20035;-61
2021/07/05 03:48:50;;;;;;;7.20;2.72;;;15.20;99.90;;;;;;5032790;28;20079;-62
2021/07/05 03:51:16;;;;;;;4.22;2.55;;;15.20;99.90;;;;;;5047501;28;20572;-63
2021/07/05 03:53:41;;;;;;;4.55;2.75;;;15.20;99.90;;;;;;5050757;28;20029;-63
2021/07/05 03:56:07;;;;;;;4.03;2.53;;;15.30;99.90;;;;;;5049695;28;20040;-60
2021/07/05 03:58:33;;;;;;;3.50;2.42;;;15.30;99.90;;;;;;5048630;28;20039;-63
2021/07/05 04:01:00;;;;;;;8.32;2.63;;;15.30;99.90;;;;;;5049907;28;20037;-62
2021/07/05 04:03:26;;;;;;;4.88;2.90;;;15.30;99.90;;;;;;5045360;28;20025;-62
2021/07/05 04:05:52;;;;;;;4.25;2.40;;;15.30;99.90;;;;;;5049921;28;20052;-63
2021/07/05 04:08:20;;;;;;;5.60;2.50;;;15.40;99.90;;;;;;5038981;28;20140;-63
2021/07/05 04:10:46;;;;;;;3.95;2.58;;;15.40;99.90;;;;;;5050712;28;20078;-62
2021/07/05 04:13:12;;;;;;;9.05;2.25;;;15.40;99.90;;;;;;5050761;28;20424;-61
2021/07/05 04:15:37;;;;;;;4.70;2.20;;;15.40;99.90;;;;;;5032633;28;20032;-61
2021/07/05 04:18:05;;;;;;;8.48;2.22;;;15.50;99.90;;;;;;5051296;28;20060;-61
2021/07/05 04:20:31;;;;;;;5.25;2.33;;;15.50;99.90;;;;;;5048697;28;20107;-62
2021/07/05 04:22:57;;;;;;;10.77;2.88;;;15.50;99.90;;;;;;5049538;28;20025;-61
2021/07/05 04:25:23;;;;;;;5.32;2.60;;;15.50;99.90;;;;;;5050294;28;20039;-62
2021/07/05 04:27:51;;;;;;;3.83;2.20;;;15.50;99.90;;;;;;5050236;28;20056;-62
2021/07/05 04:30:18;;;;;;;3.80;2.00;;;15.50;99.90;;;;;;5050494;28;20033;-61
2021/07/05 04:32:45;;;;;;;7.47;2.72;;;15.50;99.90;;;;;;5055166;28;20508;-62
2021/07/05 04:35:14;;;;;;;7.55;2.78;;;15.50;99.90;;;;;;5049374;28;20029;-63
2021/07/05 04:37:41;;;;;;;2.97;2.33;;;15.50;99.90;;;;;;5048455;28;20116;-60
2021/07/05 04:40:14;;;;;;;7.72;2.58;;;15.60;99.90;;;;;;5050405;28;20028;-62
2021/07/05 04:42:41;;;;;;;13.32;2.50;;;15.60;99.90;;;;;;5046967;28;20036;-61
2021/07/05 04:45:08;;;;;;;5.65;2.47;;;15.70;99.90;;;;;;5029404;28;20111;-57
2021/07/05 04:47:35;;;;;;;13.35;2.30;;;15.60;99.90;;;;;;5049039;28;20036;-61
2021/07/05 04:50:00;;;;;;;3.85;2.53;;;15.60;99.90;;;;;;5048238;28;20521;-62
2021/07/05 04:52:26;;;;;;;5.05;1.95;;;15.60;99.90;;;;;;5050384;28;20104;-62
2021/07/05 04:54:51;;;;;;;3.08;1.50;;;15.60;99.90;;;;;;5047159;28;20053;-62
2021/07/05 04:57:17;;;;;;;1.33;1.23;;;15.40;99.90;;;;;;5049838;28;20039;-62
2021/07/05 04:59:43;;;;;;;2.38;1.20;;;15.30;99.90;;;;;;5045550;28;20036;-62
2021/07/05 05:02:08;;;;;;;7.57;1.65;;;15.10;99.90;;;;;;5047088;28;20432;-62
2021/07/05 05:04:34;;;;;;;2.00;1.08;;;14.90;99.90;;;;;;5053323;28;20040;-62
2021/07/05 05:07:00;;;;;;;2.65;1.00;;;14.90;99.90;;;;;;5034583;28;20506;-63
2021/07/05 05:09:25;;;;;;;1.17;0.90;;;14.80;99.90;;;;;;5048125;28;20057;-63
2021/07/05 05:11:52;;;;;;;11.18;1.05;;;14.80;99.90;;;;;;5047427;28;20100;-62
2021/07/05 05:14:18;;;;;;;2.83;1.10;;;14.80;99.90;;;;;;5049450;28;20037;-63
2021/07/05 05:16:44;;;;;;;3.75;1.02;;;14.80;99.90;;;;;;5042741;28;20041;-62
2021/07/05 05:19:10;;;;;;;4.57;1.00;;;14.80;99.90;;;;;;5048549;28;20081;-62
2021/07/05 05:21:35;;;;;;;4.30;1.17;;;14.80;99.90;;;;;;5049234;28;20045;-62
2021/07/05 05:24:01;;;;;;;3.63;1.30;;;14.80;99.90;;;;;;5047040;28;20013;-62
2021/07/05 05:26:27;;;;;;;3.97;1.52;;;14.80;99.90;;;;;;5053096;28;20035;-62
2021/07/05 05:28:54;;;;;;;3.40;1.05;;;14.80;99.90;;;;;;5047950;28;20048;-63
2021/07/05 05:31:19;;;;;;;3.70;1.30;;;14.90;99.90;;;;;;5048483;28;20170;-63
2021/07/05 05:33:45;;;;;;;4.50;1.60;;;14.90;99.90;;;;;;5045826;28;20458;-62
2021/07/05 05:36:11;;;;;;;1.40;1.30;;;15.00;99.90;;;;;;5048891;28;20044;-63
2021/07/05 05:38:37;;;;;;;1.67;1.38;;;15.00;99.90;;;;;;5054695;28;20036;-63
2021/07/05 05:41:05;;;;;;;1.70;1.60;;;15.10;99.90;;;;;;5050049;28;20102;-63
2021/07/05 05:43:30;;;;;;;3.25;1.40;;;15.20;99.90;;;;;;5053320;28;20103;-62
2021/07/05 05:46:01;;;;;;;3.30;1.33;;;15.20;99.90;;;;;;5049343;28;20108;-63
2021/07/05 05:48:27;;;;;;;3.13;1.85;;;15.20;99.90;;;;;;5045029;28;20060;-63
2021/07/05 05:50:53;;;;;;;5.88;1.70;;;15.30;99.90;;;;;;5044638;28;20030;-63
2021/07/05 05:53:19;;;;;;;3.50;1.48;;;15.30;99.90;;;;;;5048443;28;20036;-62
2021/07/05 05:55:47;;;;;;;5.07;1.70;;;15.30;99.90;;;;;;5049640;28;20055;-62
2021/07/05 05:58:15;;;;;;;2.90;1.50;;;15.30;99.90;;;;;;5047766;28;20028;-63
2021/07/05 06:00:42;;;;;;;2.42;1.75;;;15.40;99.90;;;;;;5046754;28;20032;-59
2021/07/05 06:03:08;;;;;;;3.75;1.83;;;15.50;99.90;;;;;;5045176;28;20109;-62
2021/07/05 06:05:34;;;;;;;3.38;1.98;;;15.60;99.90;;;;;;5039132;28;20029;-62
2021/07/05 06:08:00;;;;;;;2.58;1.77;;;15.70;99.90;;;;;;5026625;28;20053;-62
2021/07/05 06:10:25;;;;;;;2.45;1.48;;;15.80;99.90;;;;;;5046276;28;20033;-63
2021/07/05 06:12:54;;;;;;;2.85;1.70;;;15.90;99.90;;;;;;5048817;28;20025;-62
2021/07/05 06:15:22;;;;;;;5.38;1.73;;;16.00;99.90;;;;;;5046920;28;20580;-63
2021/07/05 06:17:48;;;;;;;4.55;1.52;;;16.00;99.90;;;;;;5033699;28;20024;-62
2021/07/05 06:20:15;;;;;;;3.03;1.95;;;16.00;99.90;;;;;;5045031;28;20040;-63
2021/07/05 06:22:43;;;;;;;3.47;1.88;;;16.00;99.90;;;;;;5044407;28;20092;-63
2021/07/05 06:25:10;;;;;;;2.40;1.77;;;16.10;99.90;;;;;;5033065;28;20025;-63
2021/07/05 06:27:37;;;;;;;6.03;1.83;;;16.20;99.90;;;;;;5047470;28;20021;-62
2021/07/05 06:30:04;;;;;;;1.83;1.33;;;16.30;99.90;;;;;;5040797;28;20053;-63
2021/07/05 06:32:29;;;;;;;3.80;1.67;;;16.40;99.90;;;;;;5045934;28;20037;-63
2021/07/05 06:34:55;;;;;;;3.47;1.58;;;16.70;99.90;;;;;;5046325;28;20017;-61
2021/07/05 06:37:20;;;;;;;4.13;1.60;;;16.80;99.90;;;;;;5047490;28;20021;-63
2021/07/05 06:39:46;;;;;;;3.28;1.95;;;16.90;99.90;;;;;;5047768;28;20053;-63
2021/07/05 06:42:12;;;;;;;3.03;1.55;;;17.10;99.90;;;;;;5051394;28;20071;-62
2021/07/05 06:44:37;;;;;;;3.85;1.52;;;17.40;99.90;;;;;;5055146;28;20067;-63
2021/07/05 06:47:03;;;;;;;1.80;1.20;;;17.70;99.90;;;;;;5055113;28;20024;-63
2021/07/05 06:49:29;;;;;;;3.50;1.33;;;18.00;99.90;;;;;;5054656;28;20108;-63
2021/07/05 06:51:55;;;;;;;4.65;1.67;;;18.40;99.90;;;;;;5027678;28;20485;-62
2021/07/05 06:54:20;;;;;;;1.50;1.20;;;18.60;99.90;;;;;;5051144;28;20025;-63
2021/07/05 06:56:46;;;;;;;2.58;1.10;;;19.00;99.90;;;;;;5049576;28;20406;-63
2021/07/05 06:59:12;;;;;;;4.05;1.45;;;18.90;99.90;;;;;;5054751;28;20032;-62
2021/07/05 07:01:38;;;;;;;4.72;1.58;;;19.20;99.90;;;;;;5051283;28;20057;-63
2021/07/05 07:04:07;;;;;;;1.65;1.00;;;20.40;99.90;;;;;;5050698;28;20559;-60
2021/07/05 07:06:33;;;;;;;3.40;1.00;;;21.00;99.90;;;;;;5050526;28;20040;-61
2021/07/05 07:08:59;;;;;;;5.13;1.00;;;21.00;99.90;;;;;;5035894;28;20037;-61
2021/07/05 07:11:24;;;;;;;3.17;0.90;;;20.60;99.90;;;;;;5033708;28;20124;-61
2021/07/05 07:13:50;;;;;;;4.40;1.10;;;20.20;99.90;;;;;;5045250;28;20040;-60
2021/07/05 07:16:19;;;;;;;1.58;0.90;;;20.00;99.90;;;;;;5048328;28;20037;-57
2021/07/05 07:21:29;;;;;;;3.80;1.63;;;20.10;99.90;;;;;;5050245;28;20060;-64
2021/07/05 07:23:55;;;;;;;3.58;1.45;;;20.80;99.90;;;;;;5052152;28;20075;-60
2021/07/05 07:26:21;;;;;;;2.42;1.60;;;20.70;99.90;;;;;;5049115;28;20036;-61
2021/07/05 07:28:52;;;;;;;4.95;1.58;;;20.90;99.90;;;;;;5051683;28;20552;-62
2021/07/05 07:31:18;;;;;;;3.60;1.80;;;21.00;99.90;;;;;;5056323;28;20045;-63
2021/07/05 07:33:44;;;;;;;5.22;2.40;;;20.90;99.90;;;;;;5032906;28;20033;-63
2021/07/05 07:36:10;;;;;;;5.60;2.40;;;20.50;99.90;;;;;;5047467;28;20035;-63
2021/07/05 07:38:40;;;;;;;4.05;2.45;;;20.00;99.90;;;;;;5045306;28;20104;-63
2021/07/05 07:41:06;;;;;;;4.32;1.90;;;19.60;99.90;;;;;;5050024;28;20112;-63
2021/07/05 07:43:31;;;;;;;6.47;2.00;;;19.20;99.90;;;;;;5038290;28;22394;-63
2021/07/05 07:45:57;;;;;;;3.97;1.80;;;19.10;99.90;;;;;;5037655;28;20036;-63
2021/07/05 07:48:22;;;;;;;6.40;2.15;;;19.10;99.90;;;;;;5037136;28;20048;-63
2021/07/05 07:50:48;;;;;;;2.47;1.63;;;19.30;99.90;;;;;;5039607;28;21303;-64
2021/07/05 07:53:14;;;;;;;2.08;1.13;;;19.70;99.90;;;;;;5040220;28;20651;-60
2021/07/05 07:55:39;;;;;;;1.05;0.88;;;20.30;99.90;;;;;;5039618;28;20107;-59
2021/07/05 07:58:05;;;;;;;4.07;1.25;;;21.00;99.90;;;;;;5040405;28;20033;-61
2021/07/05 08:00:32;;;;;;;4.45;1.52;;;21.80;99.90;;;;;;5047601;28;20016;-59
2021/07/05 08:02:58;;;;;;;2.33;1.70;;;22.80;99.90;;;;;;5046359;28;20025;-62
2021/07/05 08:05:24;;;;;;;3.78;1.30;;;22.80;99.90;;;;;;5045891;28;20151;-61
2021/07/05 08:07:50;;;;;;;5.30;1.50;;;22.30;99.90;;;;;;5035783;28;20041;-61
2021/07/05 08:10:17;;;;;;;4.22;1.40;;;21.50;99.90;;;;;;5051186;28;20032;-61
2021/07/05 08:12:44;;;;;;;9.65;1.70;;;20.70;99.90;;;;;;5032287;28;20021;-60
2021/07/05 08:15:11;;;;;;;4.10;1.70;;;20.20;99.90;;;;;;5051385;28;20075;-60
2021/07/05 08:17:38;;;;;;;3.35;1.63;;;19.70;99.90;;;;;;5034087;28;20398;-61
2021/07/05 08:20:05;;;;;;;4.07;1.52;;;19.40;99.90;;;;;;5050650;28;20925;-61
2021/07/05 08:22:31;;;;;;;5.85;1.90;;;19.40;99.90;;;;;;5042943;28;20113;-61
2021/07/05 08:24:56;;;;;;;5.53;2.05;;;19.40;99.90;;;;;;5045868;28;20111;-63
2021/07/05 08:27:23;;;;;;;5.80;2.03;;;19.70;99.90;;;;;;5050495;28;20033;-63
2021/07/05 08:29:48;;;;;;;6.85;1.92;;;19.90;99.90;;;;;;5045180;28;20044;-63
2021/07/05 08:32:14;;;;;;;5.10;1.88;;;20.20;99.90;;;;;;5051023;28;20037;-59
2021/07/05 08:34:40;;;;;;;6.25;1.67;;;20.80;99.90;;;;;;5048478;28;20028;-59
2021/07/05 08:37:05;;;;;;;8.23;2.08;;;21.10;99.90;;;;;;5053182;28;20029;-60
2021/07/05 08:39:31;;;;;;;5.57;2.17;;;20.90;99.90;;;;;;5049576;28;20041;-61
2021/07/05 08:41:56;;;;;;;5.53;2.08;;;21.10;99.90;;;;;;5048101;28;20084;-60
2021/07/05 08:44:23;;;;;;;5.97;1.65;;;21.20;99.90;;;;;;5051286;28;20066;-59
2021/07/05 08:46:50;;;;;;;6.63;2.10;;;21.40;99.90;;;;;;5041305;28;20033;-59
2021/07/05 08:49:16;;;;;;;3.85;1.52;;;21.70;99.90;;;;;;5051756;28;20013;-61
2021/07/05 08:51:42;;;;;;;6.20;2.10;;;22.10;99.90;;;;;;5047699;28;20036;-60
2021/07/05 08:54:08;;;;;;;2.58;1.58;;;22.30;99.90;;;;;;5047876;28;20024;-60
2021/07/05 08:56:33;;;;;;;8.38;2.00;;;22.30;99.90;;;;;;5047879;28;20055;-61
2021/07/05 08:58:59;;;;;;;5.00;1.55;;;22.60;99.90;;;;;;5048136;28;20328;-59
2021/07/05 09:01:24;;;;;;;5.20;1.35;;;22.70;99.90;;;;;;5030089;28;20556;-60
2021/07/05 09:03:50;;;;;;;5.07;1.45;;;22.70;99.90;;;;;;5046063;28;20094;-60
2021/07/05 09:06:23;;;;;;;3.97;1.30;;;22.90;99.90;;;;;;5044320;28;20063;-59
2021/07/05 09:08:57;;;;;;;4.97;1.38;;;23.20;99.60;;;;;;5038119;28;20049;-60
2021/07/05 09:11:36;;;;;;;2.60;1.20;;;23.60;99.00;;;;;;5046080;28;20052;-59
2021/07/05 09:14:01;;;;;;;4.07;1.23;;;24.10;98.70;;;;;;5050692;28;20067;-59
2021/07/05 09:16:34;;;;;;;2.42;1.10;;;24.40;97.40;;;;;;5054643;28;20033;-59
2021/07/05 09:19:01;;;;;;;3.17;1.30;;;24.30;97.90;;;;;;5057389;28;20021;-60
2021/07/05 09:21:30;;;;;;;3.85;1.10;;;24.10;96.90;;;;;;5055599;28;20029;-61
2021/07/05 09:24:04;;;;;;;3.22;1.00;;;24.20;96.90;;;;;;5045265;28;20737;-61
2021/07/05 09:26:31;;;;;;;2.53;0.90;;;23.50;97.10;;;;;;5053524;28;20111;-59
2021/07/05 09:28:59;;;;;;;2.50;1.15;;;23.70;97.30;;;;;;5061462;28;20389;-60
2021/07/05 09:31:44;;;;;;;4.65;1.70;;;23.60;98.50;;;;;;5037386;28;20491;-61
2021/07/05 09:34:15;;;;;;;3.45;0.77;;;23.40;98.80;;;;;;5036150;28;20508;-62
2021/07/05 09:36:41;;;;;;;3.90;0.93;;;23.70;98.60;;;;;;5043869;28;20549;-64
2021/07/05 09:39:17;;;;;;;4.35;1.13;;;24.00;96.80;;;;;;5053666;28;20074;-64
2021/07/05 09:41:44;;;;;;;4.25;1.05;;;23.40;97.30;;;;;;5046467;28;20028;-64
2021/07/05 09:44:16;;;;;;;3.40;0.90;;;23.20;99.00;;;;;;5058092;28;20024;-63
2021/07/05 09:46:55;;;;;;;4.18;0.80;;;23.30;98.70;;;;;;5057368;28;20021;-63
2021/07/05 09:49:33;;;;;;;6.13;1.13;;;23.00;96.80;;;;;;5063327;28;20034;-64
2021/07/05 09:52:16;;;;;;;4.22;1.15;;;22.80;97.30;;;;;;5048993;28;20025;-63
2021/07/05 09:54:47;;;;;;;1.17;0.77;;;22.80;96.60;;;;;;5041721;28;20229;-63
2021/07/05 09:57:30;;;;;;;3.78;0.90;;;22.60;96.90;;;;;;5027107;28;20036;-63
2021/07/05 10:00:08;;;;;;;4.63;0.98;;;22.70;98.10;;;;;;5050072;28;20021;-64
2021/07/05 10:02:52;;;;;;;1.45;1.00;;;22.70;97.60;;;;;;5045726;28;20086;-63
2021/07/05 10:05:18;;;;;;;1.98;0.80;;;22.90;99.70;;;;;;5046920;28;20085;-64
2021/07/05 10:07:59;;;;;;;4.50;0.85;;;22.70;99.00;;;;;;5033901;28;20029;-64
2021/07/05 10:10:25;;;;;;;3.25;0.75;;;22.90;96.90;;;;;;5056401;28;20074;-63
2021/07/05 10:12:53;;;;;;;2.83;0.80;;;22.70;98.30;;;;;;5055727;28;20029;-64
2021/07/05 10:15:20;;;;;;;3.78;1.10;;;22.60;99.00;;;;;;5047873;28;20104;-63
2021/07/05 10:17:48;;;;;;;7.10;1.73;;;22.70;99.50;;;;;;5045868;28;20108;-64
2021/07/05 10:20:21;;;;;;;1.13;0.55;;;22.70;97.90;;;;;;5044816;28;20100;-63
2021/07/05 10:22:49;;;;;;;5.03;1.00;;;22.50;99.00;;;;;;5052678;28;20024;-64
2021/07/05 10:25:16;;;;;;;1.88;0.95;;;22.40;98.60;;;;;;5034679;28;20437;-63
2021/07/05 10:27:41;;;;;;;1.98;1.00;;;22.50;99.50;;;;;;5043925;28;20037;-63
2021/07/05 10:30:13;;;;;;;2.90;1.23;;;22.60;99.90;;;;;;5045249;28;20028;-63
2021/07/05 10:32:40;;;;;;;4.45;1.10;;;22.70;99.00;;;;;;5045951;28;20108;-63
2021/07/05 10:35:08;;;;;;;3.05;1.15;;;22.70;97.30;;;;;;5049775;28;20075;-64
2021/07/05 10:37:45;;;;;;;2.05;0.68;;;22.80;98.00;;;;;;5051158;28;20581;-63
2021/07/05 10:40:12;;;;;;;2.97;1.02;;;23.00;97.60;;;;;;5052703;28;20029;-64
2021/07/05 10:42:55;;;;;;;2.50;0.80;;;23.30;96.10;;;;;;5056379;28;20112;-64
2021/07/05 10:45:24;;;;;;;1.05;0.68;;;23.20;97.50;;;;;;5060746;28;20497;-64
2021/07/05 10:47:54;;;;;;;0.65;0.65;;;23.40;96.90;;;;;;5053499;28;20059;-64
2021/07/05 10:50:42;;;;;;;4.28;0.90;;;23.60;98.10;;;;;;5056737;28;20016;-63
2021/07/05 10:53:10;;;;;;;4.85;0.75;;;23.80;97.20;;;;;;5046197;28;20116;-63
2021/07/05 10:55:42;;;;;;;4.28;0.75;;;24.10;96.50;;;;;;5057138;28;20544;-64
2021/07/05 10:58:30;;;;;;;2.05;0.70;;;24.30;95.30;;;;;;5054586;28;20029;-64
2021/07/05 11:00:56;;;;;;;1.65;0.60;;;24.00;95.00;;;;;;5052246;28;20075;-64
2021/07/05 11:03:37;;;;;;;1.38;0.82;;;24.20;95.80;;;;;;5050608;28;20029;-64
2021/07/05 11:06:11;;;;;;;3.38;0.77;;;24.00;95.70;;;;;;5055793;28;20516;-64
2021/07/05 11:08:44;;;;;;;2.58;0.90;;;24.20;96.80;;;;;;5035993;28;20049;-64
2021/07/05 11:11:31;;;;;;;3.10;0.57;;;25.00;95.20;;;;;;5057673;28;20028;-64
2021/07/05 11:14:15;;;;;;;1.38;0.50;;;25.20;93.00;;;;;;5053773;28;20363;-64
2021/07/05 11:17:09;;;;;;;3.33;0.95;;;25.30;93.50;;;;;;5053310;28;20079;-64
2021/07/05 11:19:34;;;;;;;1.75;0.52;;;25.30;93.60;;;;;;5042598;28;20048;-65
2021/07/05 11:22:10;;;;;;;3.60;0.73;;;25.30;92.00;;;;;;5055939;28;20029;-63
2021/07/05 11:24:39;;;;;;;5.32;1.10;;;25.40;93.60;;;;;;5046001;28;20721;-63
2021/07/05 11:27:25;;;;;;;2.90;0.60;;;25.30;94.60;;;;;;5051292;28;20021;-64
2021/07/05 11:29:51;;;;;;;1.67;0.63;;;26.00;94.00;;;;;;5041856;28;20021;-63
2021/07/05 11:32:37;;;;;;;3.15;0.70;;;25.90;93.90;;;;;;5050820;28;20029;-63
2021/07/05 11:35:24;;;;;;;1.75;0.77;;;25.80;91.80;;;;;;5052238;28;20051;-65
2021/07/05 11:37:54;;;;;;;0.73;0.40;;;25.90;90.80;;;;;;5057427;28;20036;-63
2021/07/05 11:40:40;;;;;;;0.88;0.63;;;25.70;91.30;;;;;;5042953;28;20441;-64
2021/07/05 11:43:06;;;;;;;2.60;0.60;;;25.70;90.70;;;;;;5028199;28;20025;-64
2021/07/05 11:45:50;;;;;;;1.13;0.55;;;25.80;91.50;;;;;;5045692;28;20029;-64
2021/07/05 11:48:40;;;;;;;3.90;0.80;;;25.60;90.70;;;;;;5049305;28;20112;-65
2021/07/05 11:51:30;;;;;;;3.25;0.70;;;25.50;92.20;;;;;;5047038;28;20075;-65
2021/07/05 11:54:04;;;;;;;0.75;0.50;;;25.50;90.80;;;;;;5036890;28;20493;-64
2021/07/05 11:56:41;;;;;;;2.00;0.80;;;25.10;91.40;;;;;;5042735;28;20024;-64
2021/07/05 11:59:28;;;;;;;1.63;0.60;;;24.90;92.70;;;;;;5040524;28;20032;-63
2021/07/05 12:01:55;;;;;;;2.25;1.13;;;24.70;92.70;;;;;;5058648;28;20016;-64
2021/07/05 12:04:26;;;;;;;3.75;0.77;;;24.70;92.60;;;;;;5044679;28;20032;-65
2021/07/05 12:06:52;;;;;;;4.05;0.70;;;24.60;92.50;;;;;;5060197;28;20020;-65
2021/07/05 12:09:18;;;;;;;3.88;0.77;;;24.30;92.90;;;;;;5037078;28;20041;-65
2021/07/05 12:11:48;;;;;;;3.80;1.05;;;23.80;94.00;;;;;;5048542;28;20026;-65
2021/07/05 12:14:17;;;;;;;2.83;0.70;;;23.50;95.40;;;;;;5050116;28;20024;-64
2021/07/05 12:16:48;;;;;;;4.68;0.90;;;23.10;96.50;;;;;;5033931;28;20512;-64
2021/07/05 12:19:14;;;;;;;1.20;0.70;;;22.80;96.40;;;;;;5060536;28;20087;-64
2021/07/05 12:21:52;;;;;;;4.57;1.00;;;22.80;96.60;;;;;;5059476;28;20495;-65
2021/07/05 12:24:24;;;;;;;1.05;0.80;;;22.60;96.60;;;;;;5061277;28;20040;-64
2021/07/05 12:26:52;;;;;;;1.85;0.85;;;22.60;97.70;;;;;;5064432;28;20032;-64
2021/07/05 12:29:32;;;;;;;5.70;0.80;;;22.90;97.10;;;;;;5032827;28;20514;-64
2021/07/05 12:32:00;;;;;;;1.58;0.60;;;23.30;96.50;;;;;;5054063;28;20025;-64
2021/07/05 12:34:47;;;;;;;4.78;0.90;;;23.50;97.20;;;;;;5050008;28;20025;-64
2021/07/05 12:37:30;;;;;;;2.92;0.90;;;23.70;97.70;;;;;;5058715;28;20036;-64
2021/07/05 12:40:02;;;;;;;1.10;0.63;;;23.50;95.60;;;;;;5059014;28;20107;-64
2021/07/05 12:42:33;;;;;;;1.15;0.60;;;23.30;95.00;;;;;;5046365;28;20017;-64
2021/07/05 12:45:01;;;;;;;1.55;0.73;;;23.40;94.90;;;;;;5048509;28;20021;-64
2021/07/05 12:47:26;;;;;;;4.22;0.80;;;23.20;95.70;;;;;;5062120;28;20031;-64
2021/07/05 12:49:53;;;;;;;2.58;0.75;;;22.90;97.10;;;;;;5061378;28;20029;-65
2021/07/05 12:52:19;;;;;;;3.90;0.80;;;22.60;97.70;;;;;;5058540;28;20025;-64
2021/07/05 12:54:46;;;;;;;7.05;0.88;;;22.40;97.50;;;;;;5057899;28;20033;-65